createdAt,value
2023-05-01T00:00:15.491Z,6.05
2023-05-01T00:01:15.483Z,6.05
2023-05-01T00:02:15.441Z,5.94
2023-05-01T00:03:15.532Z,5.98
2023-05-01T00:04:15.730Z,5.91
2023-05-01T00:05:15.420Z,5.90
2023-05-01T00:06:15.406Z,5.94
2023-05-01T00:07:15.362Z,5.98
2023-05-01T00:08:15.339Z,5.87
2023-05-01T00:09:15.330Z,5.91
2023-05-01T00:10:15.347Z,5.97
2023-05-01T00:11:15.334Z,5.97
2023-05-01T00:12:15.314Z,5.99
2023-05-01T00:13:15.337Z,6.02
2023-05-01T00:14:15.322Z,6.07
2023-05-01T00:15:15.277Z,5.99
2023-05-01T00:16:15.294Z,6.11
2023-05-01T00:17:15.280Z,6.20
2023-05-01T00:18:15.264Z,6.07
2023-05-01T00:19:15.208Z,6.20
2023-05-01T00:20:15.184Z,6.17
2023-05-01T00:21:15.173Z,6.19
2023-05-01T00:22:15.162Z,6.19
2023-05-01T00:23:15.170Z,6.17
2023-05-01T00:24:15.138Z,6.20
2023-05-01T00:25:15.132Z,6.09
2023-05-01T00:26:15.134Z,6.04
2023-05-01T00:27:15.102Z,6.08
2023-05-01T00:28:15.084Z,6.09
2023-05-01T00:29:15.114Z,6.04
2023-05-01T00:30:15.062Z,5.94
2023-05-01T00:31:15.119Z,5.93
2023-05-01T00:32:15.113Z,5.91
2023-05-01T00:33:15.020Z,5.89
2023-05-01T00:34:15.011Z,5.87
2023-05-01T00:35:15.001Z,5.79
2023-05-01T00:36:14.991Z,5.82
2023-05-01T00:37:14.973Z,5.80
2023-05-01T00:38:14.960Z,5.68
2023-05-01T00:39:14.962Z,5.79
2023-05-01T00:40:14.950Z,5.72
2023-05-01T00:41:15.134Z,5.75
2023-05-01T00:42:14.945Z,5.73
2023-05-01T00:43:14.921Z,5.83
2023-05-01T00:44:14.905Z,5.86
2023-05-01T00:45:14.893Z,5.68
2023-05-01T00:46:14.908Z,5.75
2023-05-01T00:47:14.848Z,5.75
2023-05-01T00:48:14.862Z,5.76
2023-05-01T00:49:15.038Z,5.82
2023-05-01T00:50:14.806Z,5.75
2023-05-01T00:51:14.830Z,5.75
2023-05-01T00:52:14.797Z,5.68
2023-05-01T00:53:14.780Z,5.68
2023-05-01T00:54:14.788Z,5.65
2023-05-01T00:55:14.753Z,5.64
2023-05-01T00:56:14.755Z,5.54
2023-05-01T00:57:14.727Z,5.51
2023-05-01T00:58:14.762Z,5.56
2023-05-01T00:59:14.750Z,5.54
2023-05-01T01:00:14.762Z,5.53
2023-05-01T01:01:14.815Z,5.56
2023-05-01T01:02:14.692Z,5.44
2023-05-01T01:03:14.686Z,5.50
2023-05-01T01:04:14.727Z,5.48
2023-05-01T01:05:14.665Z,5.47
2023-05-01T01:06:14.647Z,5.50
2023-05-01T01:07:14.625Z,5.44
2023-05-01T01:08:14.628Z,5.46
2023-05-01T01:09:14.646Z,5.44
2023-05-01T01:10:14.562Z,5.36
2023-05-01T01:11:14.548Z,5.28
2023-05-01T01:12:14.546Z,5.23
2023-05-01T01:13:14.532Z,5.26
2023-05-01T01:14:14.518Z,5.25
2023-05-01T01:15:14.504Z,5.25
2023-05-01T01:16:14.582Z,5.32
2023-05-01T01:17:14.677Z,5.29
2023-05-01T01:18:14.555Z,5.35
2023-05-01T01:19:14.443Z,5.43
2023-05-01T01:20:14.421Z,5.39
2023-05-01T01:21:14.425Z,5.32
2023-05-01T01:22:14.395Z,5.33
2023-05-01T01:23:14.382Z,5.32
2023-05-01T01:24:14.378Z,5.41
2023-05-01T01:25:14.358Z,5.33
2023-05-01T01:26:14.345Z,5.33
2023-05-01T01:27:14.334Z,5.47
2023-05-01T01:28:14.316Z,5.43
2023-05-01T01:29:14.310Z,5.43
2023-05-01T01:30:14.297Z,5.48
2023-05-01T01:31:14.376Z,5.48
2023-05-01T01:32:14.269Z,5.46
2023-05-01T01:33:14.272Z,5.41
2023-05-01T01:34:14.255Z,5.46
2023-05-01T01:35:14.227Z,5.46
2023-05-01T01:36:14.276Z,5.48
2023-05-01T01:37:14.213Z,5.44
2023-05-01T01:38:14.190Z,5.47
2023-05-01T01:39:14.211Z,5.50
2023-05-01T01:40:14.164Z,5.46
2023-05-01T01:41:14.158Z,5.46
2023-05-01T01:42:14.143Z,5.38
2023-05-01T01:43:14.134Z,5.44
2023-05-01T01:44:14.105Z,5.39
2023-05-01T01:45:14.120Z,5.35
2023-05-01T01:46:14.141Z,5.44
2023-05-01T01:47:14.106Z,5.38
2023-05-01T01:48:14.084Z,5.36
2023-05-01T01:49:14.089Z,5.33
2023-05-01T01:50:14.263Z,5.28
2023-05-01T01:51:14.020Z,5.25
2023-05-01T01:52:14.008Z,5.29
2023-05-01T01:53:13.996Z,5.29
2023-05-01T01:54:13.982Z,5.21
2023-05-01T01:55:13.970Z,5.21
2023-05-01T01:56:13.982Z,5.20
2023-05-01T01:57:13.943Z,5.20
2023-05-01T01:58:13.934Z,5.20
2023-05-01T01:59:13.983Z,5.17
2023-05-01T02:00:13.959Z,5.12
2023-05-01T02:01:13.927Z,5.14
2023-05-01T02:02:13.946Z,5.15
2023-05-01T02:03:13.930Z,5.14
2023-05-01T02:04:13.919Z,5.14
2023-05-01T02:05:13.858Z,5.20
2023-05-01T02:06:13.852Z,5.20
2023-05-01T02:07:13.837Z,5.15
2023-05-01T02:08:13.835Z,5.21
2023-05-01T02:09:13.787Z,5.11
2023-05-01T02:10:13.788Z,5.11
2023-05-01T02:11:13.765Z,5.11
2023-05-01T02:12:13.757Z,5.08
2023-05-01T02:13:13.736Z,5.05
2023-05-01T02:14:13.924Z,5.12
2023-05-01T02:15:13.754Z,5.11
2023-05-01T02:16:13.740Z,5.10
2023-05-01T02:17:13.724Z,5.12
2023-05-01T02:18:13.705Z,5.17
2023-05-01T02:19:13.709Z,5.07
2023-05-01T02:20:13.673Z,5.10
2023-05-01T02:21:13.836Z,5.10
2023-05-01T02:22:13.665Z,5.10
2023-05-01T02:23:13.659Z,5.04
2023-05-01T02:24:13.592Z,5.00
2023-05-01T02:25:13.582Z,4.97
2023-05-01T02:26:13.574Z,4.99
2023-05-01T02:27:13.575Z,4.94
2023-05-01T02:28:13.574Z,4.94
2023-05-01T02:29:13.537Z,5.02
2023-05-01T02:30:13.549Z,4.99
2023-05-01T02:31:13.552Z,4.92
2023-05-01T02:32:13.500Z,4.97
2023-05-01T02:33:13.476Z,4.96
2023-05-01T02:34:13.501Z,4.93
2023-05-01T02:35:13.477Z,4.99
2023-05-01T02:36:13.486Z,5.10
2023-05-01T02:37:13.448Z,5.10
2023-05-01T02:38:13.429Z,5.05
2023-05-01T02:39:13.420Z,5.08
2023-05-01T02:40:13.427Z,5.15
2023-05-01T02:41:13.366Z,5.12
2023-05-01T02:42:13.392Z,5.14
2023-05-01T02:43:13.352Z,5.12
2023-05-01T02:44:13.339Z,5.14
2023-05-01T02:45:13.318Z,5.21
2023-05-01T02:46:13.402Z,5.15
2023-05-01T02:47:13.339Z,5.20
2023-05-01T02:48:13.345Z,5.10
2023-05-01T02:49:13.264Z,5.11
2023-05-01T02:50:13.260Z,5.15
2023-05-01T02:51:13.266Z,5.12
2023-05-01T02:52:13.233Z,5.07
2023-05-01T02:53:13.346Z,5.05
2023-05-01T02:54:13.206Z,5.07
2023-05-01T02:55:13.192Z,5.07
2023-05-01T02:56:13.176Z,5.05
2023-05-01T02:57:13.157Z,5.08
2023-05-01T02:58:13.208Z,5.00
2023-05-01T02:59:13.137Z,5.04
2023-05-01T03:00:13.132Z,5.08
2023-05-01T03:01:13.144Z,5.07
2023-05-01T03:02:13.116Z,5.08
2023-05-01T03:03:13.180Z,5.12
2023-05-01T03:04:13.099Z,5.12
2023-05-01T03:05:13.068Z,5.08
2023-05-01T03:06:13.098Z,5.04
2023-05-01T03:07:13.046Z,5.07
2023-05-01T03:08:13.023Z,5.05
2023-05-01T03:09:13.027Z,5.08
2023-05-01T03:10:13.001Z,5.04
2023-05-01T03:11:12.977Z,4.92
2023-05-01T03:12:12.969Z,4.96
2023-05-01T03:13:13.156Z,4.99
2023-05-01T03:14:12.984Z,4.94
2023-05-01T03:15:12.939Z,4.94
2023-05-01T03:16:12.952Z,4.96
2023-05-01T03:17:12.922Z,4.93
2023-05-01T03:18:13.153Z,4.86
2023-05-01T03:19:12.886Z,4.87
2023-05-01T03:20:12.873Z,4.86
2023-05-01T03:21:12.888Z,4.78
2023-05-01T03:22:12.898Z,4.87
2023-05-01T03:23:12.834Z,4.77
2023-05-01T03:24:12.855Z,4.75
2023-05-01T03:25:12.859Z,4.71
2023-05-01T03:26:12.778Z,4.86
2023-05-01T03:27:12.986Z,4.73
2023-05-01T03:28:12.770Z,4.71
2023-05-01T03:29:12.760Z,4.70
2023-05-01T03:30:12.754Z,4.74
2023-05-01T03:31:12.725Z,4.67
2023-05-01T03:32:12.805Z,4.66
2023-05-01T03:33:12.734Z,4.58
2023-05-01T03:34:12.712Z,4.58
2023-05-01T03:35:12.710Z,4.68
2023-05-01T03:36:12.697Z,4.70
2023-05-01T03:37:12.654Z,4.67
2023-05-01T03:38:12.629Z,4.71
2023-05-01T03:39:12.626Z,4.67
2023-05-01T03:40:12.654Z,4.84
2023-05-01T03:41:12.657Z,4.71
2023-05-01T03:42:12.644Z,4.73
2023-05-01T03:43:12.596Z,4.71
2023-05-01T03:44:12.586Z,4.78
2023-05-01T03:45:12.604Z,4.84
2023-05-01T03:46:12.666Z,4.74
2023-05-01T03:47:12.521Z,4.70
2023-05-01T03:48:12.558Z,4.74
2023-05-01T03:49:12.537Z,4.73
2023-05-01T03:50:12.557Z,4.75
2023-05-01T03:51:12.507Z,4.75
2023-05-01T03:52:12.450Z,4.67
2023-05-01T03:53:12.484Z,4.66
2023-05-01T03:54:12.506Z,4.56
2023-05-01T03:55:12.439Z,4.62
2023-05-01T03:56:12.378Z,4.66
2023-05-01T03:57:12.432Z,4.67
2023-05-01T03:58:12.399Z,4.66
2023-05-01T03:59:12.390Z,4.59
2023-05-01T04:00:12.391Z,4.66
2023-05-01T04:01:12.360Z,4.58
2023-05-01T04:02:12.379Z,4.60
2023-05-01T04:03:12.465Z,4.52
2023-05-01T04:04:12.475Z,4.68
2023-05-01T04:05:12.324Z,4.77
2023-05-01T04:06:12.339Z,4.87
2023-05-01T04:07:12.284Z,4.84
2023-05-01T04:08:12.259Z,4.86
2023-05-01T04:09:12.382Z,4.93
2023-05-01T04:10:12.430Z,4.96
2023-05-01T04:11:12.243Z,5.00
2023-05-01T04:12:12.228Z,5.04
2023-05-01T04:13:12.206Z,5.02
2023-05-01T04:14:12.190Z,5.00
2023-05-01T04:15:13.668Z,5.08
2023-05-01T04:16:12.227Z,5.05
2023-05-01T04:17:12.132Z,5.05
2023-05-01T04:18:12.162Z,5.07
2023-05-01T04:19:12.568Z,5.05
2023-05-01T04:20:12.135Z,5.07
2023-05-01T04:21:12.067Z,5.07
2023-05-01T04:22:12.054Z,5.10
2023-05-01T04:23:12.078Z,5.08
2023-05-01T04:24:12.052Z,5.08
2023-05-01T04:25:12.027Z,5.12
2023-05-01T04:26:12.036Z,5.05
2023-05-01T04:27:11.998Z,5.12
2023-05-01T04:28:11.999Z,5.17
2023-05-01T04:29:12.006Z,5.23
2023-05-01T04:30:11.973Z,5.26
2023-05-01T04:31:11.961Z,5.29
2023-05-01T04:32:11.930Z,5.38
2023-05-01T04:33:12.048Z,5.44
2023-05-01T04:34:11.912Z,5.50
2023-05-01T04:35:11.861Z,5.56
2023-05-01T04:36:11.898Z,5.54
2023-05-01T04:37:11.887Z,5.62
2023-05-01T04:38:11.856Z,5.64
2023-05-01T04:39:11.822Z,5.61
2023-05-01T04:40:11.982Z,5.65
2023-05-01T04:41:11.828Z,5.62
2023-05-01T04:42:11.803Z,5.65
2023-05-01T04:43:11.829Z,5.65
2023-05-01T04:44:11.830Z,5.68
2023-05-01T04:45:11.786Z,5.71
2023-05-01T04:46:11.742Z,5.69
2023-05-01T04:47:11.864Z,5.65
2023-05-01T04:48:11.872Z,5.54
2023-05-01T04:49:11.733Z,5.51
2023-05-01T04:50:11.666Z,5.51
2023-05-01T04:51:11.719Z,5.51
2023-05-01T04:52:11.640Z,5.56
2023-05-01T04:53:11.657Z,5.57
2023-05-01T04:54:11.613Z,5.48
2023-05-01T04:55:11.598Z,5.41
2023-05-01T04:56:11.629Z,5.39
2023-05-01T04:57:11.580Z,5.39
2023-05-01T04:58:11.639Z,5.43
2023-05-01T04:59:11.618Z,5.38
2023-05-01T05:00:11.641Z,5.38
2023-05-01T05:01:11.607Z,5.36
2023-05-01T05:02:11.521Z,5.32
2023-05-01T05:03:11.572Z,5.23
2023-05-01T05:04:11.586Z,5.17
2023-05-01T05:05:11.490Z,5.23
2023-05-01T05:06:11.582Z,5.21
2023-05-01T05:07:11.472Z,5.25
2023-05-01T05:08:11.472Z,5.23
2023-05-01T05:09:11.470Z,5.29
2023-05-01T05:10:11.465Z,5.29
2023-05-01T05:11:11.421Z,5.35
2023-05-01T05:12:11.398Z,5.36
2023-05-01T05:13:11.415Z,5.36
2023-05-01T05:14:11.372Z,5.50
2023-05-01T05:15:11.360Z,5.38
2023-05-01T05:16:11.364Z,5.44
2023-05-01T05:17:11.394Z,5.50
2023-05-01T05:18:11.371Z,5.57
2023-05-01T05:19:11.324Z,5.62
2023-05-01T05:20:11.297Z,5.53
2023-05-01T05:21:11.297Z,5.57
2023-05-01T05:22:11.268Z,5.57
2023-05-01T05:23:11.263Z,5.59
2023-05-01T05:24:11.276Z,5.65
2023-05-01T05:25:11.233Z,5.62
2023-05-01T05:26:11.220Z,5.79
2023-05-01T05:27:11.204Z,5.71
2023-05-01T05:28:11.243Z,5.89
2023-05-01T05:29:11.161Z,5.91
2023-05-01T05:30:11.315Z,5.87
2023-05-01T05:31:11.177Z,5.90
2023-05-01T05:32:11.236Z,5.89
2023-05-01T05:33:11.170Z,5.98
2023-05-01T05:34:11.134Z,5.94
2023-05-01T05:35:11.143Z,6.05
2023-05-01T05:36:11.112Z,6.22
2023-05-01T05:37:11.055Z,6.36
2023-05-01T05:38:11.105Z,6.45
2023-05-01T05:39:11.052Z,6.44
2023-05-01T05:40:11.251Z,6.49
2023-05-01T05:41:11.074Z,6.48
2023-05-01T05:42:11.006Z,6.54
2023-05-01T05:43:11.045Z,6.56
2023-05-01T05:44:10.998Z,6.59
2023-05-01T05:45:10.981Z,6.62
2023-05-01T05:46:11.065Z,6.67
2023-05-01T05:47:10.942Z,6.74
2023-05-01T05:48:10.966Z,6.75
2023-05-01T05:49:10.945Z,6.74
2023-05-01T05:50:10.946Z,6.75
2023-05-01T05:51:10.913Z,6.78
2023-05-01T05:52:10.935Z,6.99
2023-05-01T05:53:10.886Z,7.10
2023-05-01T05:54:10.854Z,7.15
2023-05-01T05:55:11.060Z,7.20
2023-05-01T05:56:10.847Z,7.15
2023-05-01T05:57:10.836Z,7.21
2023-05-01T05:58:10.839Z,7.36
2023-05-01T05:59:11.013Z,7.31
2023-05-01T06:00:10.862Z,7.32
2023-05-01T06:01:10.788Z,7.25
2023-05-01T06:02:10.800Z,7.21
2023-05-01T06:03:10.858Z,7.13
2023-05-01T06:04:10.728Z,7.15
2023-05-01T06:05:10.821Z,7.10
2023-05-01T06:06:10.815Z,7.29
2023-05-01T06:07:10.718Z,7.38
2023-05-01T06:08:10.691Z,7.38
2023-05-01T06:09:10.672Z,7.39
2023-05-01T06:10:10.768Z,7.39
2023-05-01T06:11:10.677Z,7.40
2023-05-01T06:12:10.656Z,7.43
2023-05-01T06:13:13.697Z,7.51
2023-05-01T06:14:10.657Z,7.38
2023-05-01T06:15:10.646Z,7.47
2023-05-01T06:16:10.641Z,7.57
2023-05-01T06:17:10.645Z,7.85
2023-05-01T06:18:10.600Z,7.88
2023-05-01T06:19:10.603Z,8.01
2023-05-01T06:20:10.557Z,8.06
2023-05-01T06:21:10.613Z,8.12
2023-05-01T06:22:10.570Z,7.93
2023-05-01T06:23:10.528Z,7.88
2023-05-01T06:24:10.535Z,7.83
2023-05-01T06:25:10.507Z,8.01
2023-05-01T06:26:10.502Z,7.97
2023-05-01T06:27:10.470Z,8.09
2023-05-01T06:28:10.477Z,8.30
2023-05-01T06:29:10.496Z,8.44
2023-05-01T06:30:10.516Z,8.44
2023-05-01T06:31:10.523Z,8.53
2023-05-01T06:32:10.427Z,8.64
2023-05-01T06:33:10.433Z,8.69
2023-05-01T06:34:10.438Z,8.67
2023-05-01T06:35:10.404Z,8.51
2023-05-01T06:36:10.363Z,8.61
2023-05-01T06:37:10.419Z,8.70
2023-05-01T06:38:10.437Z,8.76
2023-05-01T06:39:10.348Z,8.85
2023-05-01T06:40:10.326Z,9.11
2023-05-01T06:41:10.346Z,9.18
2023-05-01T06:42:10.290Z,9.04
2023-05-01T06:43:10.302Z,9.03
2023-05-01T06:44:10.316Z,9.03
2023-05-01T06:45:10.327Z,9.13
2023-05-01T06:46:10.255Z,9.23
2023-05-01T06:47:10.386Z,9.34
2023-05-01T06:48:10.350Z,9.55
2023-05-01T06:49:10.253Z,9.62
2023-05-01T06:50:10.244Z,9.74
2023-05-01T06:51:10.217Z,9.84
2023-05-01T06:52:10.212Z,9.87
2023-05-01T06:53:10.187Z,9.91
2023-05-01T06:54:10.191Z,9.91
2023-05-01T06:55:10.199Z,10.07
2023-05-01T06:56:10.156Z,10.19
2023-05-01T06:57:10.142Z,10.26
2023-05-01T06:58:22.542Z,10.42
2023-05-01T06:59:10.150Z,10.67
2023-05-01T07:00:10.092Z,10.81
2023-05-01T07:01:10.120Z,10.82
2023-05-01T07:02:10.151Z,10.81
2023-05-01T07:03:10.284Z,10.81
2023-05-01T07:04:10.052Z,10.92
2023-05-01T07:05:10.074Z,10.90
2023-05-01T07:06:10.205Z,11.08
2023-05-01T07:07:10.046Z,11.05
2023-05-01T07:08:10.033Z,10.92
2023-05-01T07:09:10.038Z,10.97
2023-05-01T07:10:10.094Z,10.90
2023-05-01T07:11:10.019Z,10.99
2023-05-01T07:12:09.972Z,10.94
2023-05-01T07:13:09.995Z,11.17
2023-05-01T07:14:10.010Z,11.29
2023-05-01T07:15:09.968Z,11.37
2023-05-01T07:16:10.068Z,11.40
2023-05-01T07:17:09.990Z,11.41
2023-05-01T07:18:10.069Z,11.48
2023-05-01T07:19:09.939Z,11.52
2023-05-01T07:20:09.902Z,11.50
2023-05-01T07:21:09.883Z,11.60
2023-05-01T07:22:10.136Z,11.63
2023-05-01T07:23:09.901Z,11.80
2023-05-01T07:24:09.879Z,11.84
2023-05-01T07:25:09.894Z,12.10
2023-05-01T07:26:09.895Z,12.15
2023-05-01T07:27:09.828Z,12.07
2023-05-01T07:28:09.857Z,12.02
2023-05-01T07:29:10.469Z,11.91
2023-05-01T07:30:09.793Z,11.80
2023-05-01T07:31:09.784Z,11.80
2023-05-01T07:32:09.837Z,11.65
2023-05-01T07:33:09.825Z,11.68
2023-05-01T07:34:09.868Z,11.83
2023-05-01T07:35:09.760Z,12.07
2023-05-01T07:36:09.754Z,12.17
2023-05-01T07:37:09.735Z,12.35
2023-05-01T07:38:09.722Z,12.55
2023-05-01T07:39:09.962Z,12.78
2023-05-01T07:40:09.728Z,13.05
2023-05-01T07:41:09.729Z,13.16
2023-05-01T07:42:09.729Z,13.15
2023-05-01T07:43:09.682Z,13.19
2023-05-01T07:44:09.673Z,13.22
2023-05-01T07:45:09.867Z,13.37
2023-05-01T07:46:09.719Z,13.49
2023-05-01T07:47:09.660Z,13.57
2023-05-01T07:48:09.684Z,13.59
2023-05-01T07:49:09.734Z,13.44
2023-05-01T07:50:09.681Z,13.20
2023-05-01T07:51:09.629Z,13.42
2023-05-01T07:52:09.644Z,13.57
2023-05-01T07:53:09.618Z,13.77
2023-05-01T07:54:09.671Z,13.75
2023-05-01T07:55:09.595Z,13.70
2023-05-01T07:56:09.639Z,13.71
2023-05-01T07:57:09.602Z,13.90
2023-05-01T07:58:09.561Z,14.10
2023-05-01T07:59:09.573Z,14.25
2023-05-01T08:00:09.542Z,14.51
2023-05-01T08:01:09.546Z,14.53
2023-05-01T08:02:09.602Z,14.63
2023-05-01T08:03:09.735Z,14.78
2023-05-01T08:04:09.548Z,14.89
2023-05-01T08:05:09.515Z,14.51
2023-05-01T08:06:09.560Z,14.43
2023-05-01T08:07:09.515Z,14.37
2023-05-01T08:08:09.501Z,14.48
2023-05-01T08:09:09.494Z,14.60
2023-05-01T08:10:09.490Z,14.86
2023-05-01T08:11:09.456Z,15.00
2023-05-01T08:12:09.433Z,15.21
2023-05-01T08:13:09.479Z,15.27
2023-05-01T08:14:09.421Z,15.35
2023-05-01T08:15:09.450Z,14.99
2023-05-01T08:16:09.477Z,14.68
2023-05-01T08:17:09.466Z,14.66
2023-05-01T08:18:09.541Z,14.62
2023-05-01T08:19:09.399Z,14.69
2023-05-01T08:20:09.449Z,14.77
2023-05-01T08:21:09.438Z,14.81
2023-05-01T08:22:09.617Z,15.02
2023-05-01T08:23:09.392Z,15.28
2023-05-01T08:24:09.396Z,15.24
2023-05-01T08:25:09.380Z,15.31
2023-05-01T08:26:09.364Z,15.52
2023-05-01T08:27:09.429Z,15.67
2023-05-01T08:28:09.387Z,15.64
2023-05-01T08:29:09.388Z,15.75
2023-05-01T08:30:09.368Z,15.98
2023-05-01T08:31:09.401Z,16.12
2023-05-01T08:32:09.343Z,15.73
2023-05-01T08:33:09.450Z,15.58
2023-05-01T08:34:15.571Z,15.65
2023-05-01T08:35:09.328Z,15.61
2023-05-01T08:36:09.334Z,15.65
2023-05-01T08:37:09.542Z,15.65
2023-05-01T08:38:09.315Z,15.65
2023-05-01T08:39:09.303Z,15.62
2023-05-01T08:40:09.285Z,15.65
2023-05-01T08:41:09.284Z,15.79
2023-05-01T08:42:09.259Z,16.12
2023-05-01T08:43:09.268Z,16.41
2023-05-01T08:44:09.274Z,16.61
2023-05-01T08:45:09.295Z,16.65
2023-05-01T08:46:09.273Z,16.47
2023-05-01T08:47:09.337Z,16.35
2023-05-01T08:48:09.246Z,16.50
2023-05-01T08:49:09.404Z,16.74
2023-05-01T08:50:09.212Z,16.74
2023-05-01T08:51:09.191Z,16.89
2023-05-01T08:52:09.166Z,17.12
2023-05-01T08:53:09.222Z,17.34
2023-05-01T08:54:09.182Z,17.51
2023-05-01T08:55:09.202Z,17.65
2023-05-01T08:56:09.147Z,17.60
2023-05-01T08:57:10.533Z,17.65
2023-05-01T08:58:09.167Z,17.64
2023-05-01T08:59:09.164Z,17.42
2023-05-01T09:00:09.124Z,17.42
2023-05-01T09:01:09.220Z,17.63
2023-05-01T09:02:09.285Z,17.68
2023-05-01T09:03:09.213Z,17.79
2023-05-01T09:04:09.161Z,17.87
2023-05-01T09:05:09.101Z,18.15
2023-05-01T09:06:09.339Z,18.29
2023-05-01T09:07:09.128Z,18.44
2023-05-01T09:08:09.279Z,18.13
2023-05-01T09:09:09.285Z,18.00
2023-05-01T09:10:09.066Z,18.34
2023-05-01T09:11:09.054Z,18.59
2023-05-01T09:12:09.064Z,18.88
2023-05-01T09:13:09.068Z,19.09
2023-05-01T09:14:09.046Z,19.16
2023-05-01T09:15:09.065Z,19.19
2023-05-01T09:16:09.094Z,19.24
2023-05-01T09:17:09.053Z,19.21
2023-05-01T09:18:09.105Z,19.22
2023-05-01T09:19:09.036Z,19.15
2023-05-01T09:20:09.009Z,19.24
2023-05-01T09:21:09.007Z,19.40
2023-05-01T09:22:08.994Z,19.71
2023-05-01T09:23:08.995Z,19.88
2023-05-01T09:24:09.205Z,20.03
2023-05-01T09:25:08.976Z,20.04
2023-05-01T09:26:08.987Z,20.29
2023-05-01T09:27:08.994Z,20.37
2023-05-01T09:28:08.976Z,20.28
2023-05-01T09:29:09.368Z,20.29
2023-05-01T09:30:09.150Z,20.18
2023-05-01T09:31:08.952Z,20.14
2023-05-01T09:32:09.157Z,19.96
2023-05-01T09:33:09.025Z,20.19
2023-05-01T09:34:08.951Z,20.37
2023-05-01T09:35:08.942Z,20.51
2023-05-01T09:36:08.960Z,20.58
2023-05-01T09:37:09.135Z,20.80
2023-05-01T09:38:08.911Z,20.60
2023-05-01T09:39:08.911Z,20.44
2023-05-01T09:40:08.940Z,20.34
2023-05-01T09:41:08.910Z,20.25
2023-05-01T09:42:08.905Z,19.86
2023-05-01T09:43:11.113Z,19.55
2023-05-01T09:44:08.919Z,19.14
2023-05-01T09:45:08.890Z,18.93
2023-05-01T09:46:08.896Z,18.75
2023-05-01T09:47:08.872Z,18.73
2023-05-01T09:48:08.900Z,18.59
2023-05-01T09:49:08.901Z,18.55
2023-05-01T09:50:08.863Z,18.81
2023-05-01T09:51:08.895Z,19.18
2023-05-01T09:52:08.847Z,19.15
2023-05-01T09:53:08.857Z,18.98
2023-05-01T09:54:08.842Z,18.92
2023-05-01T09:55:08.829Z,18.93
2023-05-01T09:56:08.828Z,18.80
2023-05-01T09:57:08.826Z,18.62
2023-05-01T09:58:08.814Z,18.59
2023-05-01T09:59:08.816Z,18.59
2023-05-01T10:00:08.827Z,18.63
2023-05-01T10:01:08.861Z,18.95
2023-05-01T10:02:08.865Z,18.84
2023-05-01T10:03:08.989Z,18.98
2023-05-01T10:04:08.935Z,19.16
2023-05-01T10:05:08.813Z,19.29
2023-05-01T10:06:08.832Z,19.56
2023-05-01T10:07:08.770Z,19.82
2023-05-01T10:08:08.774Z,20.09
2023-05-01T10:09:08.979Z,20.29
2023-05-01T10:10:08.774Z,20.50
2023-05-01T10:11:08.768Z,20.67
2023-05-01T10:12:08.750Z,20.58
2023-05-01T10:13:08.751Z,20.69
2023-05-01T10:14:08.788Z,20.84
2023-05-01T10:15:23.379Z,20.93
2023-05-01T10:16:08.783Z,21.17
2023-05-01T10:17:08.911Z,21.51
2023-05-01T10:18:08.800Z,21.75
2023-05-01T10:19:08.804Z,21.69
2023-05-01T10:20:08.746Z,21.42
2023-05-01T10:21:08.820Z,20.85
2023-05-01T10:22:08.710Z,20.65
2023-05-01T10:23:08.716Z,20.74
2023-05-01T10:24:08.705Z,20.96
2023-05-01T10:25:08.889Z,21.11
2023-05-01T10:26:08.682Z,20.69
2023-05-01T10:27:08.686Z,20.26
2023-05-01T10:28:08.730Z,20.16
2023-05-01T10:29:08.777Z,20.13
2023-05-01T10:30:08.697Z,20.11
2023-05-01T10:31:08.745Z,20.03
2023-05-01T10:32:08.814Z,19.70
2023-05-01T10:33:08.790Z,19.59
2023-05-01T10:34:08.668Z,19.84
2023-05-01T10:35:08.855Z,19.82
2023-05-01T10:36:08.675Z,19.82
2023-05-01T10:37:08.674Z,19.85
2023-05-01T10:38:08.645Z,19.94
2023-05-01T10:39:08.822Z,19.81
2023-05-01T10:40:08.635Z,19.82
2023-05-01T10:41:08.695Z,20.09
2023-05-01T10:42:08.750Z,20.00
2023-05-01T10:43:08.630Z,20.03
2023-05-01T10:44:08.846Z,20.03
2023-05-01T10:45:08.652Z,20.14
2023-05-01T10:46:08.692Z,20.11
2023-05-01T10:47:08.635Z,19.89
2023-05-01T10:48:08.643Z,19.91
2023-05-01T10:49:08.586Z,19.92
2023-05-01T10:50:08.605Z,19.74
2023-05-01T10:51:08.609Z,19.48
2023-05-01T10:52:08.608Z,19.54
2023-05-01T10:53:08.664Z,19.37
2023-05-01T10:54:08.587Z,19.62
2023-05-01T10:55:08.558Z,19.81
2023-05-01T10:56:08.578Z,19.79
2023-05-01T10:57:08.568Z,19.71
2023-05-01T10:58:08.579Z,19.66
2023-05-01T10:59:08.551Z,19.30
2023-05-01T11:00:08.544Z,19.36
2023-05-01T11:01:08.573Z,19.55
2023-05-01T11:02:08.605Z,19.51
2023-05-01T11:03:08.610Z,19.37
2023-05-01T11:04:08.543Z,19.52
2023-05-01T11:05:08.601Z,19.49
2023-05-01T11:06:08.618Z,19.37
2023-05-01T11:07:08.856Z,19.44
2023-05-01T11:08:08.520Z,19.33
2023-05-01T11:09:08.533Z,19.33
2023-05-01T11:10:08.726Z,19.24
2023-05-01T11:11:08.512Z,19.21
2023-05-01T11:12:08.471Z,19.27
2023-05-01T11:13:08.466Z,19.40
2023-05-01T11:14:08.517Z,19.54
2023-05-01T11:15:08.598Z,19.74
2023-05-01T11:16:08.580Z,19.92
2023-05-01T11:17:08.469Z,20.02
2023-05-01T11:18:08.553Z,19.99
2023-05-01T11:19:08.454Z,20.00
2023-05-01T11:20:08.470Z,20.11
2023-05-01T11:21:08.429Z,20.14
2023-05-01T11:22:08.433Z,19.76
2023-05-01T11:23:08.423Z,19.64
2023-05-01T11:24:08.444Z,19.64
2023-05-01T11:25:08.433Z,19.74
2023-05-01T11:26:08.434Z,19.84
2023-05-01T11:27:08.436Z,19.85
2023-05-01T11:28:08.401Z,19.82
2023-05-01T11:29:08.377Z,19.77
2023-05-01T11:30:08.466Z,19.76
2023-05-01T11:31:08.389Z,19.76
2023-05-01T11:32:08.513Z,19.76
2023-05-01T11:33:10.592Z,19.86
2023-05-01T11:34:08.366Z,19.86
2023-05-01T11:35:08.380Z,19.86
2023-05-01T11:36:08.367Z,19.91
2023-05-01T11:37:08.336Z,19.88
2023-05-01T11:38:08.348Z,19.94
2023-05-01T11:39:08.335Z,19.89
2023-05-01T11:40:08.340Z,19.74
2023-05-01T11:41:08.488Z,19.67
2023-05-01T11:42:08.339Z,19.48
2023-05-01T11:43:08.325Z,19.33
2023-05-01T11:44:08.329Z,19.30
2023-05-01T11:45:08.319Z,19.37
2023-05-01T11:46:08.322Z,19.39
2023-05-01T11:47:08.315Z,19.44
2023-05-01T11:48:08.323Z,19.48
2023-05-01T11:49:08.332Z,19.51
2023-05-01T11:50:08.308Z,19.40
2023-05-01T11:51:08.303Z,19.39
2023-05-01T11:52:08.894Z,19.63
2023-05-01T11:53:08.302Z,19.88
2023-05-01T11:54:08.287Z,20.06
2023-05-01T11:55:08.292Z,20.10
2023-05-01T11:56:19.530Z,20.11
2023-05-01T11:57:08.296Z,20.14
2023-05-01T11:58:08.236Z,19.96
2023-05-01T11:59:08.242Z,19.84
2023-05-01T12:00:08.259Z,19.86
2023-05-01T12:01:08.224Z,19.84
2023-05-01T12:02:08.515Z,19.86
2023-05-01T12:03:08.475Z,19.91
2023-05-01T12:04:08.396Z,20.02
2023-05-01T12:05:08.354Z,20.04
2023-05-01T12:06:08.276Z,20.13
2023-05-01T12:07:08.252Z,20.26
2023-05-01T12:08:08.207Z,20.26
2023-05-01T12:09:08.187Z,20.29
2023-05-01T12:10:08.183Z,20.41
2023-05-01T12:11:08.184Z,20.55
2023-05-01T12:12:08.188Z,20.50
2023-05-01T12:13:08.185Z,20.58
2023-05-01T12:14:08.202Z,20.63
2023-05-01T12:15:08.187Z,20.66
2023-05-01T12:16:08.375Z,20.60
2023-05-01T12:17:08.173Z,20.56
2023-05-01T12:18:08.178Z,20.40
2023-05-01T12:19:08.157Z,20.21
2023-05-01T12:20:54.355Z,19.88
2023-05-01T12:21:54.517Z,19.71
2023-05-01T12:22:54.297Z,19.52
2023-05-01T12:23:54.290Z,19.45
2023-05-01T12:24:54.485Z,19.37
2023-05-01T12:25:54.348Z,19.40
2023-05-01T12:26:54.264Z,19.31
2023-05-01T12:27:54.263Z,19.31
2023-05-01T12:28:54.324Z,19.45
2023-05-01T12:29:54.278Z,19.58
2023-05-01T12:30:54.253Z,19.64
2023-05-01T12:31:54.264Z,19.81
2023-05-01T12:32:54.273Z,19.91
2023-05-01T12:33:54.240Z,19.89
2023-05-01T12:34:54.290Z,19.91
2023-05-01T12:35:54.272Z,19.79
2023-05-01T12:36:54.225Z,19.63
2023-05-01T12:37:54.250Z,19.36
2023-05-01T12:38:54.206Z,19.34
2023-05-01T12:39:54.216Z,19.18
2023-05-01T12:40:54.245Z,19.22
2023-05-01T12:41:54.234Z,19.18
2023-05-01T12:42:54.198Z,19.19
2023-05-01T12:43:54.220Z,19.30
2023-05-01T12:44:54.254Z,19.29
2023-05-01T12:45:54.316Z,19.31
2023-05-01T12:46:54.245Z,19.21
2023-05-01T12:47:54.211Z,19.27
2023-05-01T12:48:54.595Z,19.14
2023-05-01T12:49:54.175Z,19.18
2023-05-01T12:50:54.172Z,19.15
2023-05-01T12:51:54.206Z,18.99
2023-05-01T12:52:54.140Z,19.08
2023-05-01T12:53:54.185Z,19.09
2023-05-01T12:54:54.125Z,19.21
2023-05-01T12:55:54.120Z,19.19
2023-05-01T12:56:54.123Z,19.31
2023-05-01T12:57:54.132Z,19.37
2023-05-01T12:58:54.109Z,19.39
2023-05-01T12:59:54.125Z,19.33
2023-05-01T13:00:54.178Z,19.26
2023-05-01T13:01:54.173Z,19.21
2023-05-01T13:02:54.102Z,19.12
2023-05-01T13:03:54.194Z,19.12
2023-05-01T13:04:54.146Z,19.19
2023-05-01T13:05:54.126Z,19.16
2023-05-01T13:06:54.339Z,19.27